KRNH/RNH METAR and TAF weather

Enter ICAO airport designator
Station Type Date Time Source
KRNH METAR 2019/08/24 17:35 UTC NOAA

KRNH 241735Z AUTO 15006KT 10SM BKN050 21/12 A3025 RMK AO2 T02120117


Station Type Date Time Source
KRNH Decoded METAR 2019/08/24 17:35 UTC NOAA

Station name not available
Aug 24, 2019 - 01:35 PM EDT / 2019.08.24 1735 UTC
Wind: from the SSE (150 degrees) at 7 MPH (6 KT):0
Visibility: 10 mile(s):0
Sky conditions: mostly cloudy
Temperature: 70.2 F (21.2 C)
Dew Point: 53.1 F (11.7 C)
Relative Humidity: 54%
Pressure (altimeter): 30.25 in. Hg (1024 hPa)
ob: KRNH 241735Z AUTO 15006KT 10SM BKN050 21/12 A3025 RMK AO2 T02120117
cycle: 17

Station Type Date Time Source
KRNH TAF 2019/08/24 18:22 UTC NOAA

TAF KRNH 241720Z 2418/2518 15010KT P6SM SCT050
FM250000 14005KT P6SM SCT250
FM251000 15008KT P6SM SCT050 BKN100
FM251500 15010G18KT P6SM SCT040 BKN090

Example: see airport list